Time;durP1;ratioP1;P1;durP2;ratioP2;P2;SDS_P1;SDS_P2;PMS_P1;PMS_P2;Temp;Humidity;BMP_temperature;BMP_pressure;BME280_temperature;BME280_humidity;BME280_pressure;Samples;Min_cycle;Max_cycle;Signal;HPM_P1;HPM_P2
2023/10/23 00:00:09;;;;;;;;;;;;;;;18.71;59.17;99592.78;5051572;28;19920;-77
2023/10/23 00:02:38;;;;;;;;;;;;;;;18.71;59.29;99594.63;5051347;28;19975;-76
2023/10/23 00:05:03;;;;;;;;;;;;;;;18.68;58.84;99595.09;5051269;28;20007;-77
2023/10/23 00:07:29;;;;;;;;;;;;;;;18.61;58.83;99581.81;5051554;28;19982;-78
2023/10/23 00:09:54;;;;;;;;;;;;;;;18.59;58.71;99577.72;5051220;28;19917;-74
2023/10/23 00:12:19;;;;;;;;;;;;;;;18.58;58.95;99584.94;5051328;28;19917;-77
2023/10/23 00:14:44;;;;;;;;;;;;;;;18.54;58.94;99586.41;5051265;28;19954;-75
2023/10/23 00:17:10;;;;;;;;;;;;;;;18.47;58.86;99588.34;5051256;28;20334;-77
2023/10/23 00:19:35;;;;;;;;;;;;;;;18.45;58.79;99585.09;5051673;28;19917;-75
2023/10/23 00:22:00;;;;;;;;;;;;;;;18.44;58.94;99588.81;5051565;28;20309;-78
2023/10/23 00:24:25;;;;;;;;;;;;;;;18.41;58.81;99587.41;5051521;28;19955;-75
2023/10/23 00:26:51;;;;;;;;;;;;;;;18.41;59.11;99575.91;5051183;28;20422;-77
2023/10/23 00:29:16;;;;;;;;;;;;;;;18.41;58.91;99584.72;5066578;28;19956;-75
2023/10/23 00:31:41;;;;;;;;;;;;;;;18.39;59.04;99586.81;5049957;28;19913;-77
2023/10/23 00:34:06;;;;;;;;;;;;;;;18.41;59.03;99591.94;5051251;28;19919;-78
2023/10/23 00:36:32;;;;;;;;;;;;;;;18.41;58.99;99597.28;5051261;28;19917;-77
2023/10/23 00:38:57;;;;;;;;;;;;;;;18.39;59.12;99592.16;5051124;28;20351;-77
2023/10/23 00:41:22;;;;;;;;;;;;;;;18.38;59.05;99595.06;5050919;28;20363;-76
2023/10/23 00:43:48;;;;;;;;;;;;;;;18.36;59.11;99599.81;5051121;28;20004;-78
2023/10/23 00:46:18;;;;;;;;;;;;;;;18.33;58.97;99590.41;5052119;28;19919;-77
2023/10/23 00:48:44;;;;;;;;;;;;;;;18.29;58.63;99594.56;5054733;28;19935;-77
2023/10/23 00:51:11;;;;;;;;;;;;;;;18.21;58.69;99594.06;5054619;28;20428;-77
2023/10/23 00:53:37;;;;;;;;;;;;;;;18.15;58.88;99590.44;5054449;28;19913;-77
2023/10/23 00:56:04;;;;;;;;;;;;;;;18.10;59.13;99596.47;5054362;28;19996;-77
2023/10/23 00:58:31;;;;;;;;;;;;;;;18.06;58.84;99600.63;5054627;28;19905;-77
2023/10/23 01:00:57;;;;;;;;;;;;;;;18.01;58.70;99599.69;5054441;28;20310;-77
2023/10/23 01:03:22;;;;;;;;;;;;;;;18.01;58.88;99594.34;5054475;28;19920;-76
2023/10/23 01:05:48;;;;;;;;;;;;;;;18.00;59.02;99596.19;5069687;28;19924;-78
2023/10/23 01:08:13;;;;;;;;;;;;;;;17.93;58.95;99597.31;5054600;28;19913;-75
2023/10/23 01:10:38;;;;;;;;;;;;;;;17.92;59.02;99593.00;5054460;28;19971;-78
2023/10/23 01:13:06;;;;;;;;;;;;;;;17.90;58.94;99593.22;5054407;28;19913;-75
2023/10/23 01:15:32;;;;;;;;;;;;;;;17.90;59.09;99603.91;5053992;28;19919;-76
2023/10/23 01:17:59;;;;;;;;;;;;;;;17.85;58.95;99602.97;5052881;28;19908;-77
2023/10/23 01:20:26;;;;;;;;;;;;;;;17.78;59.18;99603.81;5054117;28;20362;-75
2023/10/23 01:22:54;;;;;;;;;;;;;;;17.80;59.29;99600.94;5052707;28;19940;-76
2023/10/23 01:25:19;;;;;;;;;;;;;;;17.79;59.30;99592.09;5052895;28;19913;-76
2023/10/23 01:27:45;;;;;;;;;;;;;;;17.82;59.19;99596.19;5053976;28;19913;-75
2023/10/23 01:30:10;;;;;;;;;;;;;;;17.83;59.22;99595.13;5052497;28;19955;-77
2023/10/23 01:32:35;;;;;;;;;;;;;;;17.81;59.21;99589.22;5053847;28;20008;-77
2023/10/23 01:35:01;;;;;;;;;;;;;;;17.84;59.33;99593.31;5053624;28;19960;-77
2023/10/23 01:37:26;;;;;;;;;;;;;;;17.85;59.28;99586.94;5053758;28;19962;-77
2023/10/23 01:39:51;;;;;;;;;;;;;;;17.82;59.18;99596.19;5053528;28;19913;-77
2023/10/23 01:42:17;;;;;;;;;;;;;;;17.79;59.15;99593.97;5053441;28;19923;-77
2023/10/23 01:44:42;;;;;;;;;;;;;;;17.78;59.11;99598.47;5053826;28;19920;-75
2023/10/23 01:47:07;;;;;;;;;;;;;;;17.80;59.02;99590.25;5053898;28;19920;-78
2023/10/23 01:49:32;;;;;;;;;;;;;;;17.78;59.09;99600.34;5053490;28;19995;-75
2023/10/23 01:51:58;;;;;;;;;;;;;;;17.73;59.10;99608.19;5053409;28;20329;-76
2023/10/23 01:54:23;;;;;;;;;;;;;;;17.71;58.95;99605.75;5053572;28;20015;-77
2023/10/23 01:56:48;;;;;;;;;;;;;;;17.72;59.10;99604.72;5053469;28;19919;-76
2023/10/23 01:59:14;;;;;;;;;;;;;;;17.66;58.97;99612.78;5052584;28;19970;-76
2023/10/23 02:01:39;;;;;;;;;;;;;;;17.63;59.09;99610.53;5052040;28;19924;-77
2023/10/23 02:04:05;;;;;;;;;;;;;;;17.66;58.96;99618.09;5053333;28;19921;-74
2023/10/23 02:06:31;;;;;;;;;;;;;;;17.66;59.09;99615.44;5053383;28;19913;-75
2023/10/23 02:08:56;;;;;;;;;;;;;;;17.68;59.12;99618.72;5053153;28;20314;-75
2023/10/23 02:11:22;;;;;;;;;;;;;;;17.68;59.06;99618.72;5053073;28;19959;-76
2023/10/23 02:13:47;;;;;;;;;;;;;;;17.65;59.02;99622.63;5053052;28;19912;-76
2023/10/23 02:16:12;;;;;;;;;;;;;;;17.61;58.97;99623.31;5053166;28;19963;-76
2023/10/23 02:18:37;;;;;;;;;;;;;;;17.54;59.00;99619.88;5053049;28;20374;-76
2023/10/23 02:21:03;;;;;;;;;;;;;;;17.51;58.98;99623.00;5068352;28;19963;-76
2023/10/23 02:23:29;;;;;;;;;;;;;;;17.48;59.02;99613.56;5052999;28;19927;-76
2023/10/23 02:25:55;;;;;;;;;;;;;;;17.46;59.03;99615.66;5052977;28;20322;-76
2023/10/23 02:28:20;;;;;;;;;;;;;;;17.44;59.04;99615.88;5052843;28;19917;-76
2023/10/23 02:30:45;;;;;;;;;;;;;;;17.40;59.17;99614.69;5053015;28;19917;-75
2023/10/23 02:33:11;;;;;;;;;;;;;;;17.37;59.16;99617.78;5052745;28;20422;-77
2023/10/23 02:35:37;;;;;;;;;;;;;;;17.34;59.22;99623.56;5051284;28;20424;-77
2023/10/23 02:38:02;;;;;;;;;;;;;;;17.29;59.16;99625.25;5052666;28;19920;-76
2023/10/23 02:40:28;;;;;;;;;;;;;;;17.28;59.24;99627.13;5052493;28;20308;-76
2023/10/23 02:42:53;;;;;;;;;;;;;;;17.34;59.16;99620.09;5052486;28;20309;-76
2023/10/23 02:45:18;;;;;;;;;;;;;;;17.32;59.09;99627.50;5052732;28;19912;-77
2023/10/23 02:47:44;;;;;;;;;;;;;;;17.27;59.13;99630.00;5052522;28;19913;-77
2023/10/23 02:50:09;;;;;;;;;;;;;;;17.27;59.22;99628.16;5052615;28;20369;-76
2023/10/23 02:52:34;;;;;;;;;;;;;;;17.23;59.31;99634.16;5052650;28;19919;-77
2023/10/23 02:55:00;;;;;;;;;;;;;;;17.24;59.41;99633.94;5052449;28;19913;-77
2023/10/23 02:57:25;;;;;;;;;;;;;;;17.22;59.32;99632.50;5052362;28;19996;-76
2023/10/23 02:59:50;;;;;;;;;;;;;;;17.21;59.53;99628.22;5067452;28;19913;-76
2023/10/23 03:02:16;;;;;;;;;;;;;;;17.25;59.17;99630.22;5051966;28;19925;-76
2023/10/23 03:04:42;;;;;;;;;;;;;;;17.24;59.14;99633.94;5067223;28;20363;-77
2023/10/23 03:07:07;;;;;;;;;;;;;;;17.21;59.50;99628.22;5052063;28;19920;-77
2023/10/23 03:09:32;;;;;;;;;;;;;;;17.27;59.25;99624.66;5051984;28;19904;-77
2023/10/23 03:11:57;;;;;;;;;;;;;;;17.28;59.10;99628.97;5052044;28;19912;-76
2023/10/23 03:14:23;;;;;;;;;;;;;;;17.24;59.27;99620.59;5052049;28;19913;-75
2023/10/23 03:16:48;;;;;;;;;;;;;;;17.26;59.11;99623.84;5050631;28;19912;-74
2023/10/23 03:19:13;;;;;;;;;;;;;;;17.23;59.02;99621.63;5067343;28;19920;-77
2023/10/23 03:21:38;;;;;;;;;;;;;;;17.17;59.09;99627.84;5051708;28;19970;-77
2023/10/23 03:24:04;;;;;;;;;;;;;;;17.12;59.32;99633.00;5051875;28;19913;-77
2023/10/23 03:26:30;;;;;;;;;;;;;;;17.09;59.30;99623.59;5052079;28;20011;-77
2023/10/23 03:28:55;;;;;;;;;;;;;;;17.08;59.39;99627.25;5051597;28;19912;-75
2023/10/23 03:31:21;;;;;;;;;;;;;;;17.07;59.42;99627.47;5051603;28;19912;-77
2023/10/23 03:33:46;;;;;;;;;;;;;;;17.11;59.40;99626.84;5050666;28;19944;-77
2023/10/23 03:36:11;;;;;;;;;;;;;;;17.11;59.24;99626.84;5051650;28;19913;-75
2023/10/23 03:38:37;;;;;;;;;;;;;;;17.09;59.22;99628.94;5067063;28;20405;-77
2023/10/23 03:41:02;;;;;;;;;;;;;;;17.13;59.29;99624.78;5051704;28;19913;-76
2023/10/23 03:43:27;;;;;;;;;;;;;;;17.15;59.16;99627.22;5051715;28;19913;-77
2023/10/23 03:45:53;;;;;;;;;;;;;;;17.19;59.20;99622.28;5051756;28;20386;-77
2023/10/23 03:48:18;;;;;;;;;;;;;;;17.21;59.09;99620.22;5051654;28;20453;-77
2023/10/23 03:50:43;;;;;;;;;;;;;;;17.23;59.09;99626.13;5051606;28;19913;-76
2023/10/23 03:53:09;;;;;;;;;;;;;;;17.22;58.95;99625.31;5051519;28;20385;-77
2023/10/23 03:55:37;;;;;;;;;;;;;;;17.23;59.07;99628.81;5051342;28;19913;-77
2023/10/23 03:58:02;;;;;;;;;;;;;;;17.22;59.02;99625.31;5051461;28;19913;-77
2023/10/23 04:00:29;;;;;;;;;;;;;;;17.23;59.04;99629.63;5051748;28;20278;-75
2023/10/23 04:02:54;;;;;;;;;;;;;;;17.22;58.87;99624.50;5051536;28;19917;-77
2023/10/23 04:05:19;;;;;;;;;;;;;;;17.18;59.18;99631.31;5051532;28;20431;-77
2023/10/23 04:07:45;;;;;;;;;;;;;;;17.20;59.13;99631.91;5052066;28;20435;-76
2023/10/23 04:10:13;;;;;;;;;;;;;;;17.21;59.16;99636.22;5051240;28;19917;-77
2023/10/23 04:12:39;;;;;;;;;;;;;;;17.22;58.87;99635.19;5051260;28;19920;-77
2023/10/23 04:15:04;;;;;;;;;;;;;;;17.20;59.04;99631.91;5051514;28;19913;-76
2023/10/23 04:17:29;;;;;;;;;;;;;;;17.21;59.08;99633.53;5051060;28;19913;-77
2023/10/23 04:19:54;;;;;;;;;;;;;;;17.21;58.90;99636.22;5066717;28;19913;-77
2023/10/23 04:22:20;;;;;;;;;;;;;;;17.21;58.90;99637.03;5054260;28;19964;-77
2023/10/23 04:24:47;;;;;;;;;;;;;;;17.22;58.73;99635.19;5055132;28;19917;-77
2023/10/23 04:27:12;;;;;;;;;;;;;;;17.20;58.87;99638.06;5055137;28;20305;-76
2023/10/23 04:29:37;;;;;;;;;;;;;;;17.22;58.68;99640.50;5054915;28;19923;-77
2023/10/23 04:32:02;;;;;;;;;;;;;;;17.18;58.70;99640.13;5070280;28;19913;-76
2023/10/23 04:34:28;;;;;;;;;;;;;;;17.20;58.76;99643.41;5055084;28;19912;-77
2023/10/23 04:36:53;;;;;;;;;;;;;;;17.18;58.97;99640.13;5055181;28;19966;-76
2023/10/23 04:39:18;;;;;;;;;;;;;;;17.15;59.02;99638.72;5055140;28;19913;-77
2023/10/23 04:41:43;;;;;;;;;;;;;;;17.15;59.06;99640.56;5055059;28;19921;-75
2023/10/23 04:44:09;;;;;;;;;;;;;;;17.18;58.97;99644.66;5054901;28;19917;-77
2023/10/23 04:46:34;;;;;;;;;;;;;;;17.18;58.90;99644.66;5054679;28;20374;-75
2023/10/23 04:48:59;;;;;;;;;;;;;;;17.17;58.83;99640.34;5055179;28;19924;-78
2023/10/23 04:51:25;;;;;;;;;;;;;;;17.15;59.03;99651.25;5054785;28;19919;-75
2023/10/23 04:53:50;;;;;;;;;;;;;;;17.18;59.19;99650.81;5054819;28;19935;-76
2023/10/23 04:56:15;;;;;;;;;;;;;;;17.20;58.98;99650.59;5054751;28;20286;-75
2023/10/23 04:58:40;;;;;;;;;;;;;;;17.20;58.97;99647.91;5054885;28;20000;-78
2023/10/23 05:01:14;;;;;;;;;;;;;;;17.25;58.91;99658.75;5054471;28;19913;-75
2023/10/23 05:03:39;;;;;;;;;;;;;;;17.24;58.87;99659.78;5054649;28;19996;-77
2023/10/23 05:06:05;;;;;;;;;;;;;;;17.21;59.11;99660.22;5054466;28;20015;-77
2023/10/23 05:08:30;;;;;;;;;;;;;;;17.16;59.13;99660.88;5069919;28;19923;-77
2023/10/23 05:11:04;;;;;;;;;;;;;;;17.16;58.98;99666.22;5054648;28;19912;-77
2023/10/23 05:13:29;;;;;;;;;;;;;;;17.14;58.90;99670.97;5054736;28;19970;-78
2023/10/23 05:16:01;;;;;;;;;;;;;;;17.15;59.02;99667.25;5054681;28;19912;-77
2023/10/23 05:18:26;;;;;;;;;;;;;;;17.15;58.73;99677.94;5054366;28;20000;-75
2023/10/23 05:20:51;;;;;;;;;;;;;;;17.15;58.73;99672.59;5054354;28;20406;-76
2023/10/23 05:23:17;;;;;;;;;;;;;;;17.15;58.73;99683.25;5054581;28;20357;-77
2023/10/23 05:25:46;;;;;;;;;;;;;;;17.16;58.71;99682.22;5069529;28;19913;-77
2023/10/23 05:28:11;;;;;;;;;;;;;;;17.16;58.68;99684.91;5054033;28;19925;-77
2023/10/23 05:30:37;;;;;;;;;;;;;;;17.17;58.63;99683.03;5054270;28;19921;-77
2023/10/23 05:33:03;;;;;;;;;;;;;;;17.18;58.50;99677.50;5052784;28;19913;-77
2023/10/23 05:35:28;;;;;;;;;;;;;;;17.09;58.46;99682.28;5054011;28;19913;-77
2023/10/23 05:37:54;;;;;;;;;;;;;;;17.10;58.52;99681.25;5053963;28;19912;-75
2023/10/23 05:40:19;;;;;;;;;;;;;;;17.11;58.46;99693.56;5054236;28;19912;-77
2023/10/23 05:42:44;;;;;;;;;;;;;;;17.15;58.44;99704.59;5069039;28;19920;-76
2023/10/23 05:45:09;;;;;;;;;;;;;;;17.21;58.24;99694.91;5068753;28;19937;-76
2023/10/23 05:47:35;;;;;;;;;;;;;;;17.26;58.19;99701.25;5054802;28;20295;-76
2023/10/23 05:50:00;;;;;;;;;;;;;;;17.24;58.20;99707.81;5062519;28;19924;-77
2023/10/23 05:52:25;;;;;;;;;;;;;;;17.24;58.32;99708.66;5073937;28;19934;-76
2023/10/23 05:54:51;;;;;;;;;;;;;;;17.26;58.43;99716.44;5073762;28;19962;-77
2023/10/23 05:57:16;;;;;;;;;;;;;;;17.33;58.07;99719.88;5071660;28;19924;-76
2023/10/23 05:59:41;;;;;;;;;;;;;;;17.35;58.04;99723.94;5070119;28;20417;-77
2023/10/23 06:02:06;;;;;;;;;;;;;;;17.40;58.06;99721.44;5073084;28;19974;-76
2023/10/23 06:04:32;;;;;;;;;;;;;;;17.37;58.03;99721.88;5068633;28;19924;-77
2023/10/23 06:06:57;;;;;;;;;;;;;;;17.37;58.04;99721.06;5070214;28;19916;-77
2023/10/23 06:09:22;;;;;;;;;;;;;;;17.42;57.95;99722.03;5073131;28;19955;-76
2023/10/23 06:11:47;;;;;;;;;;;;;;;17.48;58.22;99715.84;5061155;28;19913;-76
2023/10/23 06:14:13;;;;;;;;;;;;;;;17.45;58.04;99708.25;5069780;28;19955;-77
2023/10/23 06:16:38;;;;;;;;;;;;;;;17.53;58.02;99709.03;5073156;28;19919;-76
2023/10/23 06:19:05;;;;;;;;;;;;;;;17.60;57.94;99707.94;5059148;28;20309;-76
2023/10/23 06:21:31;;;;;;;;;;;;;;;17.70;57.62;99710.94;5073127;28;19916;-76
2023/10/23 06:23:56;;;;;;;;;;;;;;;17.78;57.59;99715.19;5073171;28;20336;-76
2023/10/23 06:26:21;;;;;;;;;;;;;;;17.89;57.44;99708.31;5073108;28;19913;-76
2023/10/23 06:28:47;;;;;;;;;;;;;;;18.00;57.37;99715.59;5073339;28;19940;-76
2023/10/23 06:31:12;;;;;;;;;;;;;;;18.13;57.11;99717.31;5071552;28;19942;-77
2023/10/23 06:33:38;;;;;;;;;;;;;;;18.21;56.69;99715.16;5072963;28;19912;-77
2023/10/23 06:36:05;;;;;;;;;;;;;;;18.31;56.48;99715.44;5071516;28;19922;-76
2023/10/23 06:38:31;;;;;;;;;;;;;;;18.40;56.44;99719.44;5072654;28;19920;-76
2023/10/23 06:41:00;;;;;;;;;;;;;;;18.47;56.49;99715.88;5053003;28;19924;-76
2023/10/23 06:43:26;;;;;;;;;;;;;;;18.55;56.26;99703.00;5070414;28;19924;-76
2023/10/23 06:45:51;;;;;;;;;;;;;;;18.63;56.11;99707.28;5066325;28;20320;-77
2023/10/23 06:48:16;;;;;;;;;;;;;;;18.70;56.02;99703.47;5072325;28;19921;-76
2023/10/23 06:50:46;;;;;;;;;;;;;;;18.78;55.81;99706.88;5072781;28;19946;-76
2023/10/23 06:53:12;;;;;;;;;;;;;;;18.81;55.86;99712.59;5072759;28;20320;-76
2023/10/23 06:55:45;;;;;;;;;;;;;;;18.86;55.86;99712.72;5072288;28;19912;-75
2023/10/23 06:58:10;;;;;;;;;;;;;;;18.91;55.83;99712.84;5072325;28;19923;-77
2023/10/23 07:00:36;;;;;;;;;;;;;;;18.94;55.70;99725.78;5067987;28;19912;-76
2023/10/23 07:03:01;;;;;;;;;;;;;;;18.95;55.99;99718.56;5069480;28;20423;-76
2023/10/23 07:05:26;;;;;;;;;;;;;;;18.99;55.84;99717.88;5070667;28;19921;-77
2023/10/23 07:07:51;;;;;;;;;;;;;;;19.03;55.84;99728.94;5072467;28;19913;-76
2023/10/23 07:10:17;;;;;;;;;;;;;;;19.04;55.89;99714.53;5071791;28;19986;-75
2023/10/23 07:12:42;;;;;;;;;;;;;;;19.03;55.71;99719.06;5071834;28;20036;-76
2023/10/23 07:15:08;;;;;;;;;;;;;;;19.09;55.89;99716.50;5071877;28;19959;-75
2023/10/23 07:17:34;;;;;;;;;;;;;;;19.15;55.80;99721.75;5068520;28;19932;-76
2023/10/23 07:19:59;;;;;;;;;;;;;;;19.20;55.74;99719.22;5059035;28;19917;-77
2023/10/23 07:22:24;;;;;;;;;;;;;;;19.30;55.86;99716.78;5071887;28;20378;-74
2023/10/23 07:24:49;;;;;;;;;;;;;;;19.40;55.50;99713.56;5072368;28;19922;-76
2023/10/23 07:27:15;;;;;;;;;;;;;;;19.52;55.40;99719.78;5072969;28;19949;-75
2023/10/23 07:29:40;;;;;;;;;;;;;;;19.65;54.98;99716.88;5065382;28;20417;-76
2023/10/23 07:32:06;;;;;;;;;;;;;;;19.73;54.82;99718.38;5071882;28;20415;-75
2023/10/23 07:34:31;;;;;;;;;;;;;;;19.80;54.82;99719.09;5065220;28;19916;-77
2023/10/23 07:36:56;;;;;;;;;;;;;;;19.89;55.02;99719.53;5053780;28;19913;-75
2023/10/23 07:39:21;;;;;;;;;;;;;;;20.00;54.87;99713.34;5052225;28;20306;-78
2023/10/23 07:41:47;;;;;;;;;;;;;;;20.12;54.66;99710.69;5063987;28;19921;-75
2023/10/23 07:44:12;;;;;;;;;;;;;;;20.23;54.65;99707.16;5060852;28;19916;-76
2023/10/23 07:46:38;;;;;;;;;;;;;;;20.36;54.47;99701.53;5068525;28;19916;-76
2023/10/23 07:49:04;;;;;;;;;;;;;;;20.47;54.41;99702.56;5056082;28;19932;-77
2023/10/23 07:51:29;;;;;;;;;;;;;;;20.59;54.26;99696.13;5063377;28;19916;-76
2023/10/23 07:53:54;;;;;;;;;;;;;;;20.68;53.65;99690.34;5054076;28;19917;-76
2023/10/23 07:56:19;;;;;;;;;;;;;;;20.77;53.50;99687.03;5053740;28;20397;-77
2023/10/23 07:58:45;;;;;;;;;;;;;;;20.89;53.29;99684.34;5072974;28;19922;-77
2023/10/23 08:01:11;;;;;;;;;;;;;;;20.98;52.96;99687.44;5059070;28;19927;-77
2023/10/23 08:03:37;;;;;;;;;;;;;;;21.06;52.88;99692.41;5055396;28;19917;-77
2023/10/23 08:06:03;;;;;;;;;;;;;;;21.15;52.53;99688.25;5063400;28;20484;-77
2023/10/23 08:08:29;;;;;;;;;;;;;;;21.23;52.58;99683.34;5069926;28;19917;-77
2023/10/23 08:10:54;;;;;;;;;;;;;;;21.32;52.53;99683.72;5069691;28;19917;-75
2023/10/23 08:13:20;;;;;;;;;;;;;;;21.41;52.57;99682.25;5070751;28;19917;-77
2023/10/23 08:15:45;;;;;;;;;;;;;;;21.51;52.31;99684.28;5069458;28;19916;-77
2023/10/23 08:18:10;;;;;;;;;;;;;;;21.58;52.27;99684.16;5073386;28;19922;-76
2023/10/23 08:20:35;;;;;;;;;;;;;;;21.58;51.69;99682.28;5065617;28;19924;-78
2023/10/23 08:23:01;;;;;;;;;;;;;;;21.61;52.21;99683.66;5072997;28;19932;-77
2023/10/23 08:25:26;;;;;;;;;;;;;;;21.60;52.08;99688.22;5070083;28;20016;-77
2023/10/23 08:27:51;;;;;;;;;;;;;;;21.60;51.67;99682.84;5071450;28;20313;-77
2023/10/23 08:30:17;;;;;;;;;;;;;;;21.60;51.77;99685.53;5070821;28;20356;-77
2023/10/23 08:32:42;;;;;;;;;;;;;;;21.62;51.62;99691.47;5063768;28;20004;-77
2023/10/23 08:35:07;;;;;;;;;;;;;;;21.61;50.00;99694.41;5067391;28;19916;-77
2023/10/23 08:37:32;;;;;;;;;;;;;;;21.65;50.76;99687.47;5072188;28;19916;-77
2023/10/23 08:39:58;;;;;;;;;;;;;;;21.69;50.49;99683.25;5074461;28;19923;-78
2023/10/23 08:42:23;;;;;;;;;;;;;;;21.71;50.65;99681.13;5067574;28;19921;-76
2023/10/23 08:44:50;;;;;;;;;;;;;;;21.71;50.40;99686.50;5073834;28;20359;-76
2023/10/23 08:47:16;;;;;;;;;;;;;;;21.69;49.16;99692.13;5073187;28;20007;-78
2023/10/23 08:49:41;;;;;;;;;;;;;;;21.73;50.29;99684.38;5071523;28;20371;-77
2023/10/23 08:52:09;;;;;;;;;;;;;;;21.80;50.33;99685.81;5068537;28;19924;-77
2023/10/23 08:54:34;;;;;;;;;;;;;;;21.88;49.72;99677.31;5066591;28;19916;-77
2023/10/23 08:57:00;;;;;;;;;;;;;;;21.95;50.88;99677.16;5068832;28;20385;-77
2023/10/23 08:59:25;;;;;;;;;;;;;;;22.03;49.59;99682.13;5068353;28;19916;-77
2023/10/23 09:01:51;;;;;;;;;;;;;;;22.18;49.32;99676.94;5062803;28;19926;-77
2023/10/23 09:04:16;;;;;;;;;;;;;;;22.30;49.47;99684.09;5070803;28;20392;-77
2023/10/23 09:06:45;;;;;;;;;;;;;;;22.43;49.99;99672.94;5071875;28;20358;-77
2023/10/23 09:09:10;;;;;;;;;;;;;;;22.50;48.69;99670.88;5054392;28;20433;-77
2023/10/23 09:11:37;;;;;;;;;;;;;;;22.62;49.34;99676.09;5066441;28;19939;-76
2023/10/23 09:14:02;;;;;;;;;;;;;;;22.69;49.76;99674.00;5074061;28;19916;-77
2023/10/23 09:16:28;;;;;;;;;;;;;;;22.68;48.68;99665.13;5074940;28;20373;-77
2023/10/23 09:18:55;;;;;;;;;;;;;;;22.72;48.92;99666.25;5072249;28;20337;-78
2023/10/23 09:21:20;;;;;;;;;;;;;;;22.82;48.42;99660.19;5062002;28;19921;-77
2023/10/23 09:23:49;;;;;;;;;;;;;;;22.94;47.48;99662.69;5055701;28;20007;-78
2023/10/23 09:26:14;;;;;;;;;;;;;;;23.03;49.19;99650.41;5066201;28;20075;-76
2023/10/23 09:28:39;;;;;;;;;;;;;;;23.07;48.16;99654.22;5057832;28;20003;-78
2023/10/23 09:31:05;;;;;;;;;;;;;;;23.16;48.14;99650.00;5053801;28;19913;-76
2023/10/23 09:33:31;;;;;;;;;;;;;;;23.28;47.87;99653.31;5058675;28;20057;-76
2023/10/23 09:35:57;;;;;;;;;;;;;;;23.36;48.95;99650.13;5072499;28;19917;-78
2023/10/23 09:38:23;;;;;;;;;;;;;;;23.44;48.48;99656.94;5073836;28;19913;-77
2023/10/23 09:40:49;;;;;;;;;;;;;;;23.44;46.31;99655.03;5073733;28;19917;-77
2023/10/23 09:43:14;;;;;;;;;;;;;;;23.51;47.83;99651.31;5067746;28;20412;-78
2023/10/23 09:45:40;;;;;;;;;;;;;;;23.54;46.29;99653.47;5067947;28;19917;-77
2023/10/23 09:48:06;;;;;;;;;;;;;;;23.61;47.33;99656.78;5058512;28;19921;-75
2023/10/23 09:50:32;;;;;;;;;;;;;;;23.69;46.80;99653.59;5074930;28;19935;-76
2023/10/23 09:52:57;;;;;;;;;;;;;;;23.80;46.72;99647.22;5078570;28;19916;-76
2023/10/23 09:55:26;;;;;;;;;;;;;;;23.92;46.43;99636.22;5052863;28;19928;-76
2023/10/23 09:57:53;;;;;;;;;;;;;;;23.96;45.20;99643.53;5035564;28;19925;-78
2023/10/23 10:00:18;;;;;;;;;;;;;;;24.02;44.20;99642.47;5033487;28;19917;-77
2023/10/23 10:02:45;;;;;;;;;;;;;;;24.06;45.03;99640.88;5035642;28;19927;-77
2023/10/23 10:05:15;;;;;;;;;;;;;;;24.20;45.95;99634.97;5044391;28;20421;-78
2023/10/23 10:07:43;;;;;;;;;;;;;;;24.31;45.71;99642.06;5048969;28;19916;-78
2023/10/23 10:10:10;;;;;;;;;;;;;;;24.30;45.01;99633.16;5050351;28;20015;-77
2023/10/23 10:12:37;;;;;;;;;;;;;;;24.29;44.37;99628.00;5046848;28;20355;-75
2023/10/23 10:15:04;;;;;;;;;;;;;;;24.30;44.89;99626.94;5044618;28;20392;-76
2023/10/23 10:17:29;;;;;;;;;;;;;;;24.30;45.19;99616.16;5048022;28;19924;-75
2023/10/23 10:19:56;;;;;;;;;;;;;;;24.42;45.63;99614.00;5049338;28;19916;-75
2023/10/23 10:22:27;;;;;;;;;;;;;;;24.57;46.54;99605.16;5052873;28;19968;-76
2023/10/23 10:24:53;;;;;;;;;;;;;;;24.64;45.69;99601.13;5046181;28;19917;-76
2023/10/23 10:27:20;;;;;;;;;;;;;;;24.73;45.82;99593.28;5051472;28;20062;-76
2023/10/23 10:29:46;;;;;;;;;;;;;;;24.78;44.00;99593.28;5052631;28;19919;-77
2023/10/23 10:32:12;;;;;;;;;;;;;;;24.85;44.19;99584.91;5052727;28;19935;-76
2023/10/23 10:34:38;;;;;;;;;;;;;;;24.84;44.39;99592.22;5050586;28;20004;-76
2023/10/23 10:37:06;;;;;;;;;;;;;;;24.89;42.86;99589.50;5051431;28;19917;-78
2023/10/23 10:39:48;;;;;;;;;;;;;;;24.89;43.35;99589.50;5051342;28;19923;-77
2023/10/23 10:42:20;;;;;;;;;;;;;;;24.97;44.21;99586.28;5032451;28;19924;-77
2023/10/23 10:44:52;;;;;;;;;;;;;;;25.06;43.66;99583.84;5032265;28;20375;-77
2023/10/23 10:47:18;;;;;;;;;;;;;;;25.15;43.66;99578.72;5035438;28;20034;-77
2023/10/23 10:49:44;;;;;;;;;;;;;;;25.17;42.80;99571.13;5051015;28;20420;-75
2023/10/23 10:52:30;;;;;;;;;;;;;;;25.18;41.74;99570.88;5052284;28;19967;-76
2023/10/23 10:54:56;;;;;;;;;;;;;;;25.21;43.39;99567.63;5052425;28;19913;-76
2023/10/23 10:57:21;;;;;;;;;;;;;;;25.24;42.32;99558.16;5051210;28;19924;-77
2023/10/23 10:59:46;;;;;;;;;;;;;;;25.29;43.31;99558.97;5052259;28;19920;-76
2023/10/23 11:02:11;;;;;;;;;;;;;;;25.37;42.40;99560.31;5050893;28;20015;-76
2023/10/23 11:04:37;;;;;;;;;;;;;;;25.44;42.98;99550.00;5052002;28;20313;-77
2023/10/23 11:07:02;;;;;;;;;;;;;;;25.47;41.12;99548.66;5048681;28;19923;-77
2023/10/23 11:09:28;;;;;;;;;;;;;;;25.47;41.90;99541.34;5051341;28;19917;-77
2023/10/23 11:11:56;;;;;;;;;;;;;;;25.46;41.90;99541.63;5050802;28;19964;-77
2023/10/23 11:14:24;;;;;;;;;;;;;;;24.96;43.06;99470.38;5049931;28;20003;-76
2023/10/23 11:16:50;;;;;;;;;;;;;;;25.40;43.46;99542.72;5049008;28;19917;-76
2023/10/23 11:19:16;;;;;;;;;;;;;;;25.37;42.35;99541.38;5052245;28;19919;-76
2023/10/23 11:21:41;;;;;;;;;;;;;;;25.34;41.66;99540.03;5049047;28;19921;-76
2023/10/23 11:24:07;;;;;;;;;;;;;;;25.32;41.46;99544.91;5051833;28;19913;-76
2023/10/23 11:26:32;;;;;;;;;;;;;;;25.30;42.80;99530.06;5050779;28;20407;-76
2023/10/23 11:28:57;;;;;;;;;;;;;;;25.26;41.82;99540.56;5051718;28;19912;-77
2023/10/23 11:31:22;;;;;;;;;;;;;;;25.21;42.29;99537.88;5051753;28;20003;-78
2023/10/23 11:33:52;;;;;;;;;;;;;;;25.17;41.85;99534.13;5050418;28;19987;-77
2023/10/23 11:36:18;;;;;;;;;;;;;;;25.12;42.33;99533.31;5051137;28;19912;-76
2023/10/23 11:38:44;;;;;;;;;;;;;;;25.09;42.93;99528.47;5051762;28;19913;-76
2023/10/23 11:41:12;;;;;;;;;;;;;;;25.07;43.34;99531.44;5051911;28;19920;-77
2023/10/23 11:43:38;;;;;;;;;;;;;;;25.06;42.63;99529.00;5051818;28;19940;-76
2023/10/23 11:46:07;;;;;;;;;;;;;;;25.04;43.77;99507.66;5050983;28;19913;-76
2023/10/23 11:48:32;;;;;;;;;;;;;;;25.02;43.80;99509.84;5051305;28;19964;-75
2023/10/23 11:50:59;;;;;;;;;;;;;;;24.99;43.66;99497.69;5050273;28;20388;-75
2023/10/23 11:53:26;;;;;;;;;;;;;;;24.98;42.81;99509.56;5051471;28;19999;-77
2023/10/23 11:55:51;;;;;;;;;;;;;;;24.97;43.23;99507.97;5051497;28;20021;-77
2023/10/23 11:58:29;;;;;;;;;;;;;;;24.95;43.78;99515.50;5050618;28;19983;-76
2023/10/23 12:00:54;;;;;;;;;;;;;;;24.93;43.26;99504.16;5032728;28;19924;-74
2023/10/23 12:03:20;;;;;;;;;;;;;;;24.91;43.64;99503.63;5038968;28;19929;-77
2023/10/23 12:05:45;;;;;;;;;;;;;;;24.91;43.82;99497.41;5044898;28;20441;-76
2023/10/23 12:08:12;;;;;;;;;;;;;;;24.88;43.69;99501.47;5036368;28;19921;-75
2023/10/23 12:10:38;;;;;;;;;;;;;;;24.87;44.07;99507.13;5031954;28;19913;-76
2023/10/23 12:13:03;;;;;;;;;;;;;;;24.87;44.88;99504.44;5031775;28;20004;-75
2023/10/23 12:15:28;;;;;;;;;;;;;;;24.85;43.51;99498.50;5035425;28;20016;-75
2023/10/23 12:17:54;;;;;;;;;;;;;;;24.84;43.16;99508.50;5048769;28;20397;-76
2023/10/23 12:20:21;;;;;;;;;;;;;;;24.83;43.13;99506.88;5038540;28;19924;-76
2023/10/23 12:22:47;;;;;;;;;;;;;;;24.84;43.52;99507.69;5051450;28;19967;-77
2023/10/23 12:25:13;;;;;;;;;;;;;;;24.83;44.14;99506.88;5052330;28;20409;-78
2023/10/23 12:27:39;;;;;;;;;;;;;;;24.83;43.64;99506.88;5050832;28;20410;-77
2023/10/23 12:30:05;;;;;;;;;;;;;;;24.85;44.71;99509.28;5050562;28;19979;-76
2023/10/23 12:32:31;;;;;;;;;;;;;;;24.84;43.78;99502.28;5051013;28;19928;-76
2023/10/23 12:34:59;;;;;;;;;;;;;;;24.83;43.62;99500.66;5051054;28;19913;-75
2023/10/23 12:37:28;;;;;;;;;;;;;;;24.82;43.83;99499.03;5050849;28;20392;-77
2023/10/23 12:39:54;;;;;;;;;;;;;;;24.82;44.26;99493.63;5050940;28;19917;-76